sensor_id;sensor_type;location;lat;lon;timestamp;pressure;altitude;pressure_sealevel;temperature;humidity
10940;BME280;5522;42.696;23.494;2024-03-08T00:00:04;53875.94;;;-139.68;100.00
10940;BME280;5522;42.696;23.494;2024-03-08T00:02:35;53827.69;;;-139.68;100.00
10940;BME280;5522;42.696;23.494;2024-03-08T00:05:05;53847.78;;;-139.68;100.00
10940;BME280;5522;42.696;23.494;2024-03-08T00:07:34;53833.72;;;-139.68;100.00
10940;BME280;5522;42.696;23.494;2024-03-08T00:10:01;53851.81;;;-139.68;100.00
10940;BME280;5522;42.696;23.494;2024-03-08T00:12:28;53851.81;;;-139.68;100.00
10940;BME280;5522;42.696;23.494;2024-03-08T00:14:56;53829.69;;;-139.68;100.00
10940;BME280;5522;42.696;23.494;2024-03-08T00:17:22;53843.75;;;-139.68;100.00
10940;BME280;5522;42.696;23.494;2024-03-08T00:19:50;53890.00;;;-139.68;100.00
10940;BME280;5522;42.696;23.494;2024-03-08T00:22:18;53831.69;;;-139.68;100.00
10940;BME280;5522;42.696;23.494;2024-03-08T00:24:45;53833.72;;;-139.68;100.00
10940;BME280;5522;42.696;23.494;2024-03-08T00:27:12;53831.69;;;-139.68;100.00
10940;BME280;5522;42.696;23.494;2024-03-08T00:29:39;53853.81;;;-139.68;100.00
10940;BME280;5522;42.696;23.494;2024-03-08T00:32:06;53833.72;;;-139.68;100.00
10940;BME280;5522;42.696;23.494;2024-03-08T00:34:35;53843.75;;;-139.68;100.00
10940;BME280;5522;42.696;23.494;2024-03-08T00:37:02;53847.78;;;-139.68;100.00
10940;BME280;5522;42.696;23.494;2024-03-08T00:39:31;53875.94;;;-139.68;100.00
10940;BME280;5522;42.696;23.494;2024-03-08T00:41:58;53835.72;;;-139.68;100.00
10940;BME280;5522;42.696;23.494;2024-03-08T00:44:24;53883.97;;;-139.68;100.00
10940;BME280;5522;42.696;23.494;2024-03-08T00:46:51;53845.78;;;-139.68;100.00
10940;BME280;5522;42.696;23.494;2024-03-08T00:49:18;53843.75;;;-139.68;100.00
10940;BME280;5522;42.696;23.494;2024-03-08T00:51:45;53847.78;;;-139.68;100.00
10940;BME280;5522;42.696;23.494;2024-03-08T00:54:12;53821.66;;;-139.68;100.00
10940;BME280;5522;42.696;23.494;2024-03-08T00:56:40;53855.81;;;-139.68;100.00
10940;BME280;5522;42.696;23.494;2024-03-08T00:59:07;53815.63;;;-139.68;100.00
10940;BME280;5522;42.696;23.494;2024-03-08T01:07:02;53888.00;;;-139.68;100.00
10940;BME280;5522;42.696;23.494;2024-03-08T01:09:29;53823.66;;;-139.68;100.00
10940;BME280;5522;42.696;23.494;2024-03-08T01:12:00;53863.88;;;-139.68;100.00
10940;BME280;5522;42.696;23.494;2024-03-08T01:14:27;53855.81;;;-139.68;100.00
10940;BME280;5522;42.696;23.494;2024-03-08T01:16:56;53855.81;;;-139.68;100.00
10940;BME280;5522;42.696;23.494;2024-03-08T01:19:23;53815.63;;;-139.68;100.00
10940;BME280;5522;42.696;23.494;2024-03-08T01:21:50;53829.69;;;-139.68;100.00
10940;BME280;5522;42.696;23.494;2024-03-08T01:24:17;53847.78;;;-139.68;100.00
10940;BME280;5522;42.696;23.494;2024-03-08T01:26:43;53851.81;;;-139.68;100.00
10940;BME280;5522;42.696;23.494;2024-03-08T01:29:12;53877.94;;;-139.68;100.00
10940;BME280;5522;42.696;23.494;2024-03-08T01:31:38;53835.72;;;-139.68;100.00
10940;BME280;5522;42.696;23.494;2024-03-08T01:34:05;53863.88;;;-139.68;100.00
10940;BME280;5522;42.696;23.494;2024-03-08T01:36:32;53867.88;;;-139.68;100.00
10940;BME280;5522;42.696;23.494;2024-03-08T01:38:59;53833.72;;;-139.68;100.00
10940;BME280;5522;42.696;23.494;2024-03-08T01:41:25;53851.81;;;-139.68;100.00
10940;BME280;5522;42.696;23.494;2024-03-08T01:43:55;53855.81;;;-139.68;100.00
10940;BME280;5522;42.696;23.494;2024-03-08T01:46:23;53855.81;;;-139.68;100.00
10940;BME280;5522;42.696;23.494;2024-03-08T01:48:50;53841.75;;;-139.68;100.00
10940;BME280;5522;42.696;23.494;2024-03-08T01:51:18;53837.72;;;-139.68;100.00
10940;BME280;5522;42.696;23.494;2024-03-08T01:53:46;53861.84;;;-139.68;100.00
10940;BME280;5522;42.696;23.494;2024-03-08T01:56:14;53851.81;;;-139.68;100.00
10940;BME280;5522;42.696;23.494;2024-03-08T01:58:41;53847.78;;;-139.68;100.00
10940;BME280;5522;42.696;23.494;2024-03-08T02:01:10;53841.75;;;-139.68;100.00
10940;BME280;5522;42.696;23.494;2024-03-08T02:03:39;53827.69;;;-139.68;100.00
10940;BME280;5522;42.696;23.494;2024-03-08T02:06:06;53839.75;;;-139.68;100.00
10940;BME280;5522;42.696;23.494;2024-03-08T02:08:35;53857.84;;;-139.68;100.00
10940;BME280;5522;42.696;23.494;2024-03-08T02:11:02;53831.69;;;-139.68;100.00
10940;BME280;5522;42.696;23.494;2024-03-08T02:13:30;53827.69;;;-139.68;100.00
10940;BME280;5522;42.696;23.494;2024-03-08T02:15:58;53855.81;;;-139.68;100.00
10940;BME280;5522;42.696;23.494;2024-03-08T02:18:28;53853.81;;;-139.68;100.00
10940;BME280;5522;42.696;23.494;2024-03-08T02:20:57;53841.75;;;-139.68;100.00
10940;BME280;5522;42.696;23.494;2024-03-08T02:23:25;53875.94;;;-139.68;100.00
10940;BME280;5522;42.696;23.494;2024-03-08T02:25:53;53841.75;;;-139.68;100.00
10940;BME280;5522;42.696;23.494;2024-03-08T02:28:21;53843.75;;;-139.68;100.00
10940;BME280;5522;42.696;23.494;2024-03-08T02:30:49;53845.78;;;-139.68;100.00
10940;BME280;5522;42.696;23.494;2024-03-08T02:33:17;53851.81;;;-139.68;100.00
10940;BME280;5522;42.696;23.494;2024-03-08T02:35:45;53857.84;;;-139.68;100.00
10940;BME280;5522;42.696;23.494;2024-03-08T02:38:14;53867.88;;;-139.68;100.00
10940;BME280;5522;42.696;23.494;2024-03-08T02:40:42;53831.69;;;-139.68;100.00
10940;BME280;5522;42.696;23.494;2024-03-08T02:43:09;53898.03;;;-139.68;100.00
10940;BME280;5522;42.696;23.494;2024-03-08T02:45:36;53831.69;;;-139.68;100.00
10940;BME280;5522;42.696;23.494;2024-03-08T02:48:04;53855.81;;;-139.68;100.00
10940;BME280;5522;42.696;23.494;2024-03-08T02:50:32;53851.81;;;-139.68;100.00
10940;BME280;5522;42.696;23.494;2024-03-08T02:53:00;53845.78;;;-139.68;100.00
10940;BME280;5522;42.696;23.494;2024-03-08T02:55:28;53869.91;;;-139.68;100.00
10940;BME280;5522;42.696;23.494;2024-03-08T02:57:55;53835.72;;;-139.68;100.00
10940;BME280;5522;42.696;23.494;2024-03-08T03:00:23;53851.81;;;-139.68;100.00
10940;BME280;5522;42.696;23.494;2024-03-08T03:02:50;53857.84;;;-139.68;100.00
10940;BME280;5522;42.696;23.494;2024-03-08T03:05:19;53867.88;;;-139.68;100.00
10940;BME280;5522;42.696;23.494;2024-03-08T03:07:46;53871.91;;;-139.68;100.00
10940;BME280;5522;42.696;23.494;2024-03-08T03:10:14;53855.81;;;-139.68;100.00
10940;BME280;5522;42.696;23.494;2024-03-08T03:12:44;53823.66;;;-139.68;100.00
10940;BME280;5522;42.696;23.494;2024-03-08T03:15:12;53855.81;;;-139.68;100.00
10940;BME280;5522;42.696;23.494;2024-03-08T03:17:39;53869.91;;;-139.68;100.00
10940;BME280;5522;42.696;23.494;2024-03-08T03:20:07;53843.75;;;-139.68;100.00
10940;BME280;5522;42.696;23.494;2024-03-08T03:22:38;53835.72;;;-139.68;100.00
10940;BME280;5522;42.696;23.494;2024-03-08T03:25:07;53823.66;;;-139.68;100.00
10940;BME280;5522;42.696;23.494;2024-03-08T03:27:35;53827.69;;;-139.68;100.00
10940;BME280;5522;42.696;23.494;2024-03-08T03:30:04;53855.81;;;-139.68;100.00
10940;BME280;5522;42.696;23.494;2024-03-08T03:32:58;53863.88;;;-139.68;100.00
10940;BME280;5522;42.696;23.494;2024-03-08T03:35:26;53841.75;;;-139.68;100.00
10940;BME280;5522;42.696;23.494;2024-03-08T03:37:53;53863.88;;;-139.68;100.00
10940;BME280;5522;42.696;23.494;2024-03-08T03:40:31;53833.72;;;-139.68;100.00
10940;BME280;5522;42.696;23.494;2024-03-08T03:42:59;53839.75;;;-139.68;100.00
10940;BME280;5522;42.696;23.494;2024-03-08T03:45:26;53835.72;;;-139.68;100.00
10940;BME280;5522;42.696;23.494;2024-03-08T03:47:53;53845.78;;;-139.68;100.00
10940;BME280;5522;42.696;23.494;2024-03-08T03:50:21;53857.84;;;-139.68;100.00
10940;BME280;5522;42.696;23.494;2024-03-08T03:52:49;53853.81;;;-139.68;100.00
10940;BME280;5522;42.696;23.494;2024-03-08T03:55:16;53861.84;;;-139.68;100.00
10940;BME280;5522;42.696;23.494;2024-03-08T03:57:43;53819.63;;;-139.68;100.00
10940;BME280;5522;42.696;23.494;2024-03-08T04:00:12;53807.56;;;-139.68;100.00
10940;BME280;5522;42.696;23.494;2024-03-08T04:02:39;53875.94;;;-139.68;100.00
10940;BME280;5522;42.696;23.494;2024-03-08T04:05:07;53857.84;;;-139.68;100.00
10940;BME280;5522;42.696;23.494;2024-03-08T04:07:37;53867.88;;;-139.68;100.00
10940;BME280;5522;42.696;23.494;2024-03-08T04:10:04;53849.78;;;-139.68;100.00
10940;BME280;5522;42.696;23.494;2024-03-08T04:12:32;53877.94;;;-139.68;100.00
10940;BME280;5522;42.696;23.494;2024-03-08T04:14:59;53839.75;;;-139.68;100.00
10940;BME280;5522;42.696;23.494;2024-03-08T04:17:26;53857.84;;;-139.68;100.00
10940;BME280;5522;42.696;23.494;2024-03-08T04:19:53;53823.66;;;-139.68;100.00
10940;BME280;5522;42.696;23.494;2024-03-08T04:22:20;53847.78;;;-139.68;100.00
10940;BME280;5522;42.696;23.494;2024-03-08T04:24:48;53835.72;;;-139.68;100.00
10940;BME280;5522;42.696;23.494;2024-03-08T04:27:15;53849.78;;;-139.68;100.00
10940;BME280;5522;42.696;23.494;2024-03-08T04:29:42;53843.75;;;-139.68;100.00
10940;BME280;5522;42.696;23.494;2024-03-08T04:32:09;53849.78;;;-139.68;100.00
10940;BME280;5522;42.696;23.494;2024-03-08T04:34:39;53827.69;;;-139.68;100.00
10940;BME280;5522;42.696;23.494;2024-03-08T04:37:05;53900.06;;;-139.68;100.00
10940;BME280;5522;42.696;23.494;2024-03-08T04:39:32;53837.72;;;-139.68;100.00
10940;BME280;5522;42.696;23.494;2024-03-08T04:42:02;53847.78;;;-139.68;100.00
10940;BME280;5522;42.696;23.494;2024-03-08T04:44:30;53851.81;;;-139.68;100.00
10940;BME280;5522;42.696;23.494;2024-03-08T04:46:57;53835.72;;;-139.68;100.00
10940;BME280;5522;42.696;23.494;2024-03-08T04:49:24;53851.81;;;-139.68;100.00
10940;BME280;5522;42.696;23.494;2024-03-08T04:51:50;53851.81;;;-139.68;100.00
10940;BME280;5522;42.696;23.494;2024-03-08T04:54:17;53839.75;;;-139.68;100.00
10940;BME280;5522;42.696;23.494;2024-03-08T04:56:44;53853.81;;;-139.68;100.00
10940;BME280;5522;42.696;23.494;2024-03-08T04:59:12;53863.88;;;-139.68;100.00
10940;BME280;5522;42.696;23.494;2024-03-08T05:01:39;53851.81;;;-139.68;100.00
10940;BME280;5522;42.696;23.494;2024-03-08T05:04:06;53823.66;;;-139.68;100.00
10940;BME280;5522;42.696;23.494;2024-03-08T05:06:33;53843.75;;;-139.68;100.00
10940;BME280;5522;42.696;23.494;2024-03-08T05:09:00;53843.75;;;-139.68;100.00
10940;BME280;5522;42.696;23.494;2024-03-08T05:11:38;53837.72;;;-139.68;100.00
10940;BME280;5522;42.696;23.494;2024-03-08T05:14:05;53835.72;;;-139.68;100.00
10940;BME280;5522;42.696;23.494;2024-03-08T05:16:33;53817.63;;;-139.68;100.00
10940;BME280;5522;42.696;23.494;2024-03-08T05:19:00;53823.66;;;-139.68;100.00
10940;BME280;5522;42.696;23.494;2024-03-08T05:21:27;53859.84;;;-139.68;100.00
10940;BME280;5522;42.696;23.494;2024-03-08T05:23:54;53843.75;;;-139.68;100.00
10940;BME280;5522;42.696;23.494;2024-03-08T05:26:21;53803.56;;;-139.68;100.00
10940;BME280;5522;42.696;23.494;2024-03-08T05:28:48;53827.69;;;-139.68;100.00
10940;BME280;5522;42.696;23.494;2024-03-08T05:31:19;53853.81;;;-139.68;100.00
10940;BME280;5522;42.696;23.494;2024-03-08T05:33:47;53875.94;;;-139.68;100.00
10940;BME280;5522;42.696;23.494;2024-03-08T05:36:14;53845.78;;;-139.68;100.00
10940;BME280;5522;42.696;23.494;2024-03-08T05:38:42;53815.63;;;-139.68;100.00
10940;BME280;5522;42.696;23.494;2024-03-08T05:41:09;53831.69;;;-139.68;100.00
10940;BME280;5522;42.696;23.494;2024-03-08T05:43:37;53851.81;;;-139.68;100.00
10940;BME280;5522;42.696;23.494;2024-03-08T05:46:04;53847.78;;;-139.68;100.00
10940;BME280;5522;42.696;23.494;2024-03-08T05:48:31;53831.69;;;-139.68;100.00
10940;BME280;5522;42.696;23.494;2024-03-08T05:50:59;53845.78;;;-139.68;100.00
10940;BME280;5522;42.696;23.494;2024-03-08T05:53:27;53847.78;;;-139.68;100.00
10940;BME280;5522;42.696;23.494;2024-03-08T05:55:57;53875.94;;;-139.68;100.00
10940;BME280;5522;42.696;23.494;2024-03-08T05:58:24;53825.66;;;-139.68;100.00
10940;BME280;5522;42.696;23.494;2024-03-08T06:00:51;53827.69;;;-139.68;100.00
10940;BME280;5522;42.696;23.494;2024-03-08T06:03:17;53851.81;;;-139.68;100.00
10940;BME280;5522;42.696;23.494;2024-03-08T06:05:47;53851.81;;;-139.68;100.00
10940;BME280;5522;42.696;23.494;2024-03-08T06:08:15;53863.88;;;-139.68;100.00
10940;BME280;5522;42.696;23.494;2024-03-08T06:10:43;53861.84;;;-139.68;100.00
10940;BME280;5522;42.696;23.494;2024-03-08T06:13:10;53857.84;;;-139.68;100.00
10940;BME280;5522;42.696;23.494;2024-03-08T06:15:37;53831.69;;;-139.68;100.00
10940;BME280;5522;42.696;23.494;2024-03-08T06:18:05;53837.72;;;-139.68;100.00
10940;BME280;5522;42.696;23.494;2024-03-08T06:20:36;53825.66;;;-139.68;100.00
10940;BME280;5522;42.696;23.494;2024-03-08T06:23:03;53827.69;;;-139.68;100.00
10940;BME280;5522;42.696;23.494;2024-03-08T06:25:31;53843.75;;;-139.68;100.00
10940;BME280;5522;42.696;23.494;2024-03-08T06:27:58;53805.56;;;-139.68;100.00
10940;BME280;5522;42.696;23.494;2024-03-08T06:30:25;53863.88;;;-139.68;100.00
10940;BME280;5522;42.696;23.494;2024-03-08T06:32:52;53825.66;;;-139.68;100.00
10940;BME280;5522;42.696;23.494;2024-03-08T06:35:18;53823.66;;;-139.68;100.00
10940;BME280;5522;42.696;23.494;2024-03-08T06:37:45;53869.91;;;-139.68;100.00
10940;BME280;5522;42.696;23.494;2024-03-08T06:40:13;53833.72;;;-139.68;100.00
10940;BME280;5522;42.696;23.494;2024-03-08T06:42:41;53892.00;;;-139.68;100.00
10940;BME280;5522;42.696;23.494;2024-03-08T06:45:09;53829.69;;;-139.68;100.00
10940;BME280;5522;42.696;23.494;2024-03-08T06:47:37;53821.66;;;-139.68;100.00
10940;BME280;5522;42.696;23.494;2024-03-08T06:50:05;53837.72;;;-139.68;100.00
10940;BME280;5522;42.696;23.494;2024-03-08T06:52:33;53855.81;;;-139.68;100.00
10940;BME280;5522;42.696;23.494;2024-03-08T06:55:00;53869.91;;;-139.68;100.00
10940;BME280;5522;42.696;23.494;2024-03-08T06:57:27;53873.91;;;-139.68;100.00
10940;BME280;5522;42.696;23.494;2024-03-08T06:59:56;53908.09;;;-139.68;100.00
10940;BME280;5522;42.696;23.494;2024-03-08T07:02:23;53857.84;;;-139.68;100.00
10940;BME280;5522;42.696;23.494;2024-03-08T07:04:50;53853.81;;;-139.68;100.00
10940;BME280;5522;42.696;23.494;2024-03-08T07:07:18;53863.88;;;-139.68;100.00
10940;BME280;5522;42.696;23.494;2024-03-08T07:09:46;53845.78;;;-139.68;100.00
10940;BME280;5522;42.696;23.494;2024-03-08T07:12:15;53892.00;;;-139.68;100.00
10940;BME280;5522;42.696;23.494;2024-03-08T07:14:42;53861.84;;;-139.68;100.00
10940;BME280;5522;42.696;23.494;2024-03-08T07:17:12;53898.03;;;-139.68;100.00
10940;BME280;5522;42.696;23.494;2024-03-08T07:19:38;53855.81;;;-139.68;100.00
10940;BME280;5522;42.696;23.494;2024-03-08T07:22:05;53815.63;;;-139.68;100.00
10940;BME280;5522;42.696;23.494;2024-03-08T07:24:35;53859.84;;;-139.68;100.00
10940;BME280;5522;42.696;23.494;2024-03-08T07:27:26;53908.09;;;-139.68;100.00
10940;BME280;5522;42.696;23.494;2024-03-08T07:29:52;53877.94;;;-139.68;100.00
10940;BME280;5522;42.696;23.494;2024-03-08T07:32:22;53888.00;;;-139.68;100.00
10940;BME280;5522;42.696;23.494;2024-03-08T07:34:48;53908.09;;;-139.68;97.44
10940;BME280;5522;42.696;23.494;2024-03-08T07:37:16;53847.78;;;-139.68;90.57
10940;BME280;5522;42.696;23.494;2024-03-08T07:39:43;53839.75;;;-139.68;94.63
10940;BME280;5522;42.696;23.494;2024-03-08T07:42:09;53847.78;;;-139.68;99.12
10940;BME280;5522;42.696;23.494;2024-03-08T07:44:37;53843.75;;;-139.68;94.67
10940;BME280;5522;42.696;23.494;2024-03-08T07:47:04;53869.91;;;-139.68;91.67
10940;BME280;5522;42.696;23.494;2024-03-08T07:49:36;53871.91;;;-139.68;87.25
10940;BME280;5522;42.696;23.494;2024-03-08T07:52:04;53898.03;;;-139.68;90.52
10940;BME280;5522;42.696;23.494;2024-03-08T07:54:32;53883.97;;;-139.68;84.75
10940;BME280;5522;42.696;23.494;2024-03-08T07:57:00;53916.13;;;-139.68;83.32
10940;BME280;5522;42.696;23.494;2024-03-08T07:59:28;53950.31;;;-139.68;85.63
10940;BME280;5522;42.696;23.494;2024-03-08T08:01:55;53888.00;;;-139.68;82.21
10940;BME280;5522;42.696;23.494;2024-03-08T08:04:22;53900.06;;;-139.68;75.37
10940;BME280;5522;42.696;23.494;2024-03-08T08:06:51;53916.13;;;-139.68;69.24
10940;BME280;5522;42.696;23.494;2024-03-08T08:09:20;53890.00;;;-139.68;71.26
10940;BME280;5522;42.696;23.494;2024-03-08T08:11:54;53940.25;;;-139.68;70.43
10940;BME280;5522;42.696;23.494;2024-03-08T08:14:20;53902.06;;;-139.68;68.42
10940;BME280;5522;42.696;23.494;2024-03-08T08:16:48;53944.28;;;-139.68;62.97
10940;BME280;5522;42.696;23.494;2024-03-08T08:19:17;53910.09;;;-139.68;56.92
10940;BME280;5522;42.696;23.494;2024-03-08T08:21:44;53908.09;;;-139.68;53.10
10940;BME280;5522;42.696;23.494;2024-03-08T08:24:12;53883.97;;;-139.68;48.36
10940;BME280;5522;42.696;23.494;2024-03-08T08:26:40;53898.03;;;-139.68;51.17
10940;BME280;5522;42.696;23.494;2024-03-08T08:29:08;53984.47;;;-139.68;44.05
10940;BME280;5522;42.696;23.494;2024-03-08T08:31:35;53978.47;;;-139.68;40.41
10940;BME280;5522;42.696;23.494;2024-03-08T08:34:02;53932.22;;;-139.68;38.33
10940;BME280;5522;42.696;23.494;2024-03-08T08:36:30;53964.38;;;-139.68;37.05
10940;BME280;5522;42.696;23.494;2024-03-08T08:38:57;53968.41;;;-139.68;34.15
10940;BME280;5522;42.696;23.494;2024-03-08T08:41:26;53948.31;;;-139.68;33.87
10940;BME280;5522;42.696;23.494;2024-03-08T08:43:54;53966.38;;;-139.68;32.98
10940;BME280;5522;42.696;23.494;2024-03-08T08:46:21;53972.41;;;-139.68;34.08
10940;BME280;5522;42.696;23.494;2024-03-08T08:48:48;54044.78;;;-139.68;33.05
10940;BME280;5522;42.696;23.494;2024-03-08T08:51:14;53964.38;;;-139.68;34.32
10940;BME280;5522;42.696;23.494;2024-03-08T08:53:42;53996.53;;;-139.68;35.38
10940;BME280;5522;42.696;23.494;2024-03-08T08:56:11;53996.53;;;-139.68;34.40
10940;BME280;5522;42.696;23.494;2024-03-08T08:58:40;54002.56;;;-139.68;36.10
10940;BME280;5522;42.696;23.494;2024-03-08T09:01:07;54006.59;;;-139.68;36.41
10940;BME280;5522;42.696;23.494;2024-03-08T09:03:35;53926.19;;;-139.68;38.19
10940;BME280;5522;42.696;23.494;2024-03-08T09:06:03;53958.34;;;-139.68;36.58
10940;BME280;5522;42.696;23.494;2024-03-08T09:08:30;53972.41;;;-139.68;36.97
10940;BME280;5522;42.696;23.494;2024-03-08T09:10:57;54024.69;;;-139.68;35.59
10940;BME280;5522;42.696;23.494;2024-03-08T09:13:25;54008.63;;;-139.68;37.30
10940;BME280;5522;42.696;23.494;2024-03-08T09:15:53;53980.47;;;-139.68;36.85
10940;BME280;5522;42.696;23.494;2024-03-08T09:18:20;53976.44;;;-139.68;37.12
10940;BME280;5522;42.696;23.494;2024-03-08T09:20:46;53980.47;;;-139.68;35.86
10940;BME280;5522;42.696;23.494;2024-03-08T09:23:13;53988.50;;;-139.68;38.96
10940;BME280;5522;42.696;23.494;2024-03-08T09:25:42;53964.38;;;-139.68;39.83
10940;BME280;5522;42.696;23.494;2024-03-08T09:28:09;53988.50;;;-139.68;40.14
10940;BME280;5522;42.696;23.494;2024-03-08T09:30:37;53980.47;;;-139.68;40.73
10940;BME280;5522;42.696;23.494;2024-03-08T09:33:05;54004.59;;;-139.68;45.10
10940;BME280;5522;42.696;23.494;2024-03-08T09:35:32;53974.44;;;-139.68;46.14
10940;BME280;5522;42.696;23.494;2024-03-08T09:37:59;53958.34;;;-139.68;47.12
10940;BME280;5522;42.696;23.494;2024-03-08T09:40:26;53968.41;;;-139.68;50.25
10940;BME280;5522;42.696;23.494;2024-03-08T09:42:53;53940.25;;;-139.68;53.41
10940;BME280;5522;42.696;23.494;2024-03-08T09:45:20;53966.38;;;-139.68;52.33
10940;BME280;5522;42.696;23.494;2024-03-08T09:47:49;53996.53;;;-139.68;51.93
10940;BME280;5522;42.696;23.494;2024-03-08T09:50:24;53964.38;;;-139.68;52.45
10940;BME280;5522;42.696;23.494;2024-03-08T09:52:53;53956.34;;;-139.68;47.13
10940;BME280;5522;42.696;23.494;2024-03-08T09:55:22;53996.53;;;-139.68;47.19
10940;BME280;5522;42.696;23.494;2024-03-08T09:57:51;53980.47;;;-139.68;46.42
10940;BME280;5522;42.696;23.494;2024-03-08T10:00:35;53972.41;;;-139.68;45.37
10940;BME280;5522;42.696;23.494;2024-03-08T10:03:03;53968.41;;;-139.68;47.24
10940;BME280;5522;42.696;23.494;2024-03-08T10:05:32;53966.38;;;-139.68;47.90
10940;BME280;5522;42.696;23.494;2024-03-08T10:08:03;53992.53;;;-139.68;51.47
10940;BME280;5522;42.696;23.494;2024-03-08T10:10:33;53974.44;;;-139.68;49.68
10940;BME280;5522;42.696;23.494;2024-03-08T10:13:00;53972.41;;;-139.68;50.31
10940;BME280;5522;42.696;23.494;2024-03-08T10:15:29;53974.44;;;-139.68;45.89
10940;BME280;5522;42.696;23.494;2024-03-08T10:18:01;53976.44;;;-139.68;42.00
10940;BME280;5522;42.696;23.494;2024-03-08T10:20:31;53992.53;;;-139.68;41.31
10940;BME280;5522;42.696;23.494;2024-03-08T10:22:59;53988.50;;;-139.68;41.49
10940;BME280;5522;42.696;23.494;2024-03-08T10:25:29;53978.47;;;-139.68;44.37
10940;BME280;5522;42.696;23.494;2024-03-08T10:28:02;53998.56;;;-139.68;41.59
10940;BME280;5522;42.696;23.494;2024-03-08T10:30:30;54008.63;;;-139.68;45.02
10940;BME280;5522;42.696;23.494;2024-03-08T10:33:00;53974.44;;;-139.68;42.72
10940;BME280;5522;42.696;23.494;2024-03-08T10:35:29;53970.41;;;-139.68;41.03
10940;BME280;5522;42.696;23.494;2024-03-08T10:37:58;53980.47;;;-139.68;38.93
10940;BME280;5522;42.696;23.494;2024-03-08T10:40:29;54010.63;;;-139.68;40.73
10940;BME280;5522;42.696;23.494;2024-03-08T10:42:58;54004.59;;;-139.68;41.40
10940;BME280;5522;42.696;23.494;2024-03-08T10:45:31;53992.53;;;-139.68;40.19
10940;BME280;5522;42.696;23.494;2024-03-08T10:48:25;53980.47;;;-139.68;40.95
10940;BME280;5522;42.696;23.494;2024-03-08T10:50:57;54000.56;;;-139.68;40.50
10940;BME280;5522;42.696;23.494;2024-03-08T10:53:27;53984.47;;;-139.68;40.89
10940;BME280;5522;42.696;23.494;2024-03-08T10:55:56;53972.41;;;-139.68;42.95
10940;BME280;5522;42.696;23.494;2024-03-08T10:58:24;54004.59;;;-139.68;43.43
10940;BME280;5522;42.696;23.494;2024-03-08T11:00:53;54004.59;;;-139.68;43.97
10940;BME280;5522;42.696;23.494;2024-03-08T11:03:45;53978.47;;;-139.68;45.92
10940;BME280;5522;42.696;23.494;2024-03-08T11:06:15;53952.31;;;-139.68;45.56
10940;BME280;5522;42.696;23.494;2024-03-08T11:08:44;53974.44;;;-139.68;44.03
10940;BME280;5522;42.696;23.494;2024-03-08T11:11:26;53994.53;;;-139.68;44.64
10940;BME280;5522;42.696;23.494;2024-03-08T11:14:00;54008.63;;;-139.68;48.37
10940;BME280;5522;42.696;23.494;2024-03-08T11:16:39;53936.22;;;-139.68;50.97
10940;BME280;5522;42.696;23.494;2024-03-08T11:19:24;54012.63;;;-139.68;46.33
10940;BME280;5522;42.696;23.494;2024-03-08T11:21:58;53968.41;;;-139.68;46.64
10940;BME280;5522;42.696;23.494;2024-03-08T11:24:26;53954.31;;;-139.68;51.37
10940;BME280;5522;42.696;23.494;2024-03-08T11:26:57;53962.38;;;-139.68;42.82
10940;BME280;5522;42.696;23.494;2024-03-08T11:29:33;53978.47;;;-139.68;43.47
10940;BME280;5522;42.696;23.494;2024-03-08T11:32:04;53972.41;;;-139.68;43.68
10940;BME280;5522;42.696;23.494;2024-03-08T11:34:32;53972.41;;;-139.68;42.78
10940;BME280;5522;42.696;23.494;2024-03-08T11:36:59;53948.31;;;-139.68;41.64
10940;BME280;5522;42.696;23.494;2024-03-08T11:39:27;53964.38;;;-139.68;41.98
10940;BME280;5522;42.696;23.494;2024-03-08T11:41:56;53952.31;;;-139.68;43.73
10940;BME280;5522;42.696;23.494;2024-03-08T11:44:26;53970.41;;;-139.68;46.94
10940;BME280;5522;42.696;23.494;2024-03-08T11:46:54;53980.47;;;-139.68;51.85
10940;BME280;5522;42.696;23.494;2024-03-08T11:49:21;53954.31;;;-139.68;48.83
10940;BME280;5522;42.696;23.494;2024-03-08T11:51:51;53980.47;;;-139.68;48.60
10940;BME280;5522;42.696;23.494;2024-03-08T11:54:19;53964.38;;;-139.68;50.10
10940;BME280;5522;42.696;23.494;2024-03-08T11:56:47;53944.28;;;-139.68;51.53
10940;BME280;5522;42.696;23.494;2024-03-08T11:59:18;53986.50;;;-139.68;49.33
10940;BME280;5522;42.696;23.494;2024-03-08T12:02:06;53940.25;;;-139.68;48.22
10940;BME280;5522;42.696;23.494;2024-03-08T12:04:35;53956.34;;;-139.68;46.06
10940;BME280;5522;42.696;23.494;2024-03-08T12:07:03;53990.50;;;-139.68;43.36
10940;BME280;5522;42.696;23.494;2024-03-08T12:09:34;53968.41;;;-139.68;43.59
10940;BME280;5522;42.696;23.494;2024-03-08T12:12:06;53996.53;;;-139.68;41.70
10940;BME280;5522;42.696;23.494;2024-03-08T12:14:34;53982.47;;;-139.68;45.41
10940;BME280;5522;42.696;23.494;2024-03-08T12:17:02;53976.44;;;-139.68;45.39
10940;BME280;5522;42.696;23.494;2024-03-08T12:19:29;53962.38;;;-139.68;42.23
10940;BME280;5522;42.696;23.494;2024-03-08T12:21:56;53970.41;;;-139.68;42.48
10940;BME280;5522;42.696;23.494;2024-03-08T12:24:23;53968.41;;;-139.68;43.10
10940;BME280;5522;42.696;23.494;2024-03-08T12:26:52;53992.53;;;-139.68;45.06
10940;BME280;5522;42.696;23.494;2024-03-08T12:29:24;53988.50;;;-139.68;50.70
10940;BME280;5522;42.696;23.494;2024-03-08T12:31:54;53966.38;;;-139.68;50.58
10940;BME280;5522;42.696;23.494;2024-03-08T12:34:21;53970.41;;;-139.68;57.09
10940;BME280;5522;42.696;23.494;2024-03-08T12:36:51;53924.16;;;-139.68;56.63
10940;BME280;5522;42.696;23.494;2024-03-08T12:39:20;53954.31;;;-139.68;58.95
10940;BME280;5522;42.696;23.494;2024-03-08T12:41:52;53912.13;;;-139.68;64.33
10940;BME280;5522;42.696;23.494;2024-03-08T12:44:20;53944.28;;;-139.68;58.10